SBCFSBSV

Guest
Details From SBCF - Tancredo Neves
To SBSV - Salvador Bahia Deputado Luis Eduardo M
Flight Number -
Tags decoded
Created
Modified
Stats Distance 518 nm / 960 km
Max Altitude 0 ft / 0 m
Waypoints 2
Social Downloads 1
Likes 0
Share VATSIM

Download

Looking for another format? Having issues loading an existing format? Contact us
Advertisement - Login to hide

Notes

Requested: SBCF KOKSU UZ16 POSMU UZ36 MUMAS SBSV Unmatched points: KOKSU UZ16 POSMU UZ36 MUMAS

Route

SBCF SBSV

ID Type Via Altitude Latitude Longitude Leg Dist Tot Dist Heading (true) Name
O SBCF APT - 0 ft / 0 m -19.63376˚ -43.96885˚ - 0 nm - Tancredo Neves
O SBSV APT - 0 ft / 0 m -12.91099˚ -38.33104˚ 518 nm 518 nm 40° / 38° Salvador Bahia Deputado Luis Eduardo M

Altitude Profile

Advertisement - Login to hide

Weather


0- 5 10 15 20 25 30 35+ Temperature / ° C

Clouds and Precipitation
Forecast for 2017-12-11 12:00 UTC. Updated 37 minutes ago

Ground ~20,000 ft ~40,000 ft Winds

SBCF

Details ICAO SBCF (CNF)
Name Tancredo Neves
Region Brazil
Timezone America/Sao_Paulo (UTC-2.0)
Stats Elevation 2,715 ft / 828 m (AMSL)
Location -19.633758° -43.968854°
Runways 1
Magnetic Variation 22.803° W

METAR

SBCF 111100Z 32007KT 9999 BKN008 BKN080 22/20 Q1011

Decode

TAF

TAF SBCF 110200Z 1106/1206 34002KT 9999 BKN015 TN20/1109Z TX24/1118Z PROB30 1110/1112 BKN010 BECMG 1112/1114 18003KT 7000 NSC BECMG 1116/1118 BKN020 FEW040TCU PROB30 TEMPO 1119/1122 TSRA SCT020 FEW040CB RMK PCZ

Decode

Departure Runways

ID Width Length Bearing (true) Bearing (mag) Surface Threshold Offset Overrun Length
16 148 ft / 45 m 9,872 ft / 3,009 m 138.97° 161.77° Asphalt 0 ft / 0 m 203 ft / 62 m
34 148 ft / 45 m 9,872 ft / 3,009 m 318.96° 341.76° Asphalt 0 ft / 0 m 203 ft / 62 m

SBSV

Details ICAO SBSV (SSA)
Name Salvador Bahia Deputado Luis Eduardo M
Region Brazil
Timezone America/Bahia (UTC-3.0)
Stats Elevation 64 ft / 20 m (AMSL)
Location -12.910994° -38.331043°
Runways 2
Magnetic Variation 23.436° W

METAR

SBSV 111100Z 02006KT 9999 FEW020 BKN060 25/22 Q1011

Decode

TAF

TAF SBSV 110300Z 1106/1206 32005KT 7000 SCT017 TN24/1108Z TX29/1115Z BECMG 1108/1110 02007KT BECMG 1115/1117 05010KT BECMG 1122/1124 35007KT RMK PEU

Decode

Destination Runways

ID Width Length Bearing (true) Bearing (mag) Surface Threshold Offset Overrun Length
10 148 ft / 45 m 9,845 ft / 3,001 m 78.32° 101.76° Asphalt 0 ft / 0 m 205 ft / 62 m
17 148 ft / 45 m 5,014 ft / 1,528 m 144.04° 167.48° Asphalt 0 ft / 0 m 0 ft / 0 m
28 148 ft / 45 m 9,845 ft / 3,001 m 258.31° 281.75° Asphalt 0 ft / 0 m 205 ft / 62 m
35 148 ft / 45 m 5,014 ft / 1,528 m 324.04° 347.48° Asphalt 0 ft / 0 m 0 ft / 0 m

Approach Navaids

Runway Type Ident Frequency Range Bearing (true) Bearing (mag) Slope Elevation
10 Localiser ISV 109.30 MHz 18 nm / 33 km 78.41° 101.84° - 29 ft / 9 m (AMSL)
10 Glidescope ISV 109.30 MHz 10 nm / 19 km 78.32° 101.75° 2.88° 29 ft / 9 m (AMSL)

Popular Alternatives